Versailles, IN

7:47 AM EDT on June 03, 2015 (GMT -0400)
INDOT | | Change Station
CLOSE
Current Station
Personal Weather Station
Location: Versailles, IN
Elevation: 751 ft
Nearby Weather Stations

Elev 751 ft 39.06 °N, 85.23 °W | Updated 29 minutes ago

Overcast
Overcast
53 °F
Feels Like 53 °F
N
1
Wind Variable Wind from WNW
Gusts 2.0 mph

Today
High -- | Low -- °F
--% Chance of Precip.
Yesterday
High -- | Low -- °F
Precip. -- in
6:16 AM 9:02 PM
Full, 99% visible
Pressure 30.06 in
Visibility 2.0 miles
Clouds Overcast 2300 ft
Dew Point 53 °F
Humidity 96%
Rainfall in
Snow Depth Not available.
UV 0 out of 12
Pollen 8.10 out of 12
Air Quality Not available.
Flu Activity No Activity
METAR KCVG 031052Z 36004KT 2SM BR OVC023 13/12 A3008 RMK AO2 SFC VIS 2 1/2 SLP180 T01280117

More Conditions Fewer Conditions

Pressure 30.06 in
Visibility 2.0 miles
Clouds Overcast 2300 ft
Dew Point 53 °F
Humidity 96%
Rainfall in
Snow Depth Not available.
UV 0 out of 12
Pollen 8.10 out of 12
Air Quality Not available.
Flu Activity No Activity
METAR KCVG 031052Z 36004KT 2SM BR OVC023 13/12 A3008 RMK AO2 SFC VIS 2 1/2 SLP180 T01280117

More Conditions Fewer Conditions

10-Day Weather Forecast

×

Almanac

Astronomy

Jun. 03, 2015 Rise Set
Actual Time
Civil Twilight
Nautical Twilight
Astronomical Twilight
Moon
Length of Visible Light
Length of Day
Tomorrow will be .
, % of the Moon is Illuminated

Today's Extremes

State Highs State Lows

Community

WunderPhotos

Upload Photos

1,826,205 photos uploaded!

WunderBlogs® & News

Nearby

Air Quality

  Air Quality AQ Index Pollutant
Not available.

Snow Depth

Station Depth Elevation

Earthquake Activity

City Distance Mag. Time & Date
Minimum magnitude displayed is 2.5.

Coastal Water Temperatures

Place Temperature

Stations

Nearby Weather Stations

Station Location Temp. Windchill Dew Point Humidity Wind Precip. Elev Updated Type